createdAt,value
2018-07-07T00:00:13.646Z,14.62
2018-07-07T00:01:22.554Z,14.61
2018-07-07T00:02:31.454Z,14.59
2018-07-07T00:03:40.099Z,14.63
2018-07-07T00:04:48.742Z,14.61
2018-07-07T00:05:57.396Z,14.51
2018-07-07T00:07:06.039Z,14.55
2018-07-07T00:08:14.686Z,14.48
2018-07-07T00:09:23.325Z,14.53
2018-07-07T00:10:31.975Z,14.49
2018-07-07T00:11:40.623Z,14.48
2018-07-07T00:12:49.264Z,14.55
2018-07-07T00:13:57.907Z,14.53
2018-07-07T00:15:06.826Z,14.44
2018-07-07T00:16:15.468Z,14.53
2018-07-07T00:17:24.378Z,14.44
2018-07-07T00:18:33.280Z,14.49
2018-07-07T00:19:41.929Z,14.41
2018-07-07T00:20:50.576Z,14.43
2018-07-07T00:21:59.224Z,14.41
2018-07-07T00:23:07.871Z,14.23
2018-07-07T00:24:16.511Z,14.3
2018-07-07T00:25:25.157Z,14.3
2018-07-07T00:26:33.804Z,14.23
2018-07-07T00:27:42.458Z,14.26
2018-07-07T00:28:51.100Z,14.23
2018-07-07T00:30:00.018Z,14.2
2018-07-07T00:31:08.929Z,14.13
2018-07-07T00:32:17.579Z,14.15
2018-07-07T00:33:26.220Z,14.15
2018-07-07T00:34:35.138Z,14.15
2018-07-07T00:35:43.781Z,14.11
2018-07-07T00:36:52.695Z,14.03
2018-07-07T00:38:01.336Z,14.13
2018-07-07T00:39:09.979Z,14.01
2018-07-07T00:40:18.888Z,14.03
2018-07-07T00:41:27.531Z,14.03
2018-07-07T00:42:36.181Z,14.03
2018-07-07T00:43:44.826Z,14
2018-07-07T00:44:53.471Z,13.97
2018-07-07T00:46:02.112Z,13.97
2018-07-07T00:47:11.026Z,13.87
2018-07-07T00:48:19.674Z,13.91
2018-07-07T00:49:28.319Z,13.91
2018-07-07T00:50:36.959Z,13.85
2018-07-07T00:51:45.611Z,13.83
2018-07-07T00:52:54.525Z,13.85
2018-07-07T00:54:03.172Z,13.89
2018-07-07T00:55:11.811Z,13.85
2018-07-07T00:56:20.460Z,13.82
2018-07-07T00:57:29.102Z,13.85
2018-07-07T00:58:37.752Z,13.76
2018-07-07T00:59:46.401Z,13.76
2018-07-07T01:00:55.041Z,13.83
2018-07-07T01:02:03.689Z,13.83
2018-07-07T01:03:12.864Z,13.79
2018-07-07T01:04:21.513Z,13.68
2018-07-07T01:05:30.160Z,13.73
2018-07-07T01:06:38.802Z,13.6
2018-07-07T01:07:47.446Z,13.62
2018-07-07T01:08:56.087Z,13.58
2018-07-07T01:10:04.745Z,13.58
2018-07-07T01:11:13.651Z,13.58
2018-07-07T01:12:22.300Z,13.57
2018-07-07T01:13:31.203Z,13.54
2018-07-07T01:14:39.849Z,13.52
2018-07-07T01:15:48.498Z,13.49
2018-07-07T01:16:57.143Z,13.54
2018-07-07T01:18:05.789Z,13.45
2018-07-07T01:19:14.429Z,13.39
2018-07-07T01:20:23.074Z,13.45
2018-07-07T01:21:31.719Z,13.43
2018-07-07T01:22:40.633Z,13.33
2018-07-07T01:23:49.340Z,13.37
2018-07-07T01:24:57.985Z,13.39
2018-07-07T01:26:06.628Z,13.28
2018-07-07T01:27:15.537Z,13.36
2018-07-07T01:28:24.175Z,13.33
2018-07-07T01:29:32.824Z,13.36
2018-07-07T01:30:41.466Z,13.36
2018-07-07T01:31:50.115Z,13.4
2018-07-07T01:32:58.757Z,13.33
2018-07-07T01:34:07.399Z,13.27
2018-07-07T01:35:16.043Z,13.31
2018-07-07T01:36:24.688Z,13.26
2018-07-07T01:37:33.334Z,13.36
2018-07-07T01:38:41.979Z,13.24
2018-07-07T01:39:50.627Z,13.36
2018-07-07T01:40:59.263Z,13.37
2018-07-07T01:42:07.915Z,13.37
2018-07-07T01:43:16.561Z,13.31
2018-07-07T01:44:25.468Z,13.36
2018-07-07T01:45:34.107Z,13.36
2018-07-07T01:46:42.759Z,13.36
2018-07-07T01:47:51.399Z,13.31
2018-07-07T01:49:00.051Z,13.31
2018-07-07T01:50:08.694Z,13.36
2018-07-07T01:51:17.595Z,13.3
2018-07-07T01:52:26.239Z,13.36
2018-07-07T01:53:34.886Z,13.36
2018-07-07T01:54:43.533Z,13.3
2018-07-07T01:55:52.437Z,13.36
2018-07-07T01:57:01.081Z,13.36
2018-07-07T01:58:09.724Z,13.28
2018-07-07T01:59:18.648Z,13.28
2018-07-07T02:00:27.335Z,13.27
2018-07-07T02:01:35.940Z,13.28
2018-07-07T02:02:44.583Z,13.27
2018-07-07T02:03:53.499Z,13.36
2018-07-07T02:05:02.135Z,13.28
2018-07-07T02:06:10.786Z,13.16
2018-07-07T02:07:19.427Z,13.27
2018-07-07T02:08:28.080Z,13.26
2018-07-07T02:09:36.725Z,13.26
2018-07-07T02:10:45.362Z,13.24
2018-07-07T02:11:54.010Z,13.24
2018-07-07T02:13:02.652Z,13.26
2018-07-07T02:14:11.573Z,13.27
2018-07-07T02:15:20.213Z,13.26
2018-07-07T02:16:28.862Z,13.21
2018-07-07T02:17:37.497Z,13.24
2018-07-07T02:18:46.171Z,13.2
2018-07-07T02:19:54.787Z,13.27
2018-07-07T02:21:03.437Z,13.17
2018-07-07T02:22:12.072Z,13.28
2018-07-07T02:23:20.990Z,13.19
2018-07-07T02:24:29.633Z,13.19
2018-07-07T02:25:38.282Z,13.19
2018-07-07T02:26:46.916Z,13.19
2018-07-07T02:27:55.561Z,13.21
2018-07-07T02:29:04.218Z,13.16
2018-07-07T02:30:12.873Z,13.21
2018-07-07T02:31:21.782Z,13.11
2018-07-07T02:32:30.684Z,13.13
2018-07-07T02:33:39.335Z,13.17
2018-07-07T02:34:47.981Z,13.03
2018-07-07T02:35:56.632Z,13.09
2018-07-07T02:37:05.542Z,13.02
2018-07-07T02:38:14.459Z,12.99
2018-07-07T02:39:23.373Z,12.99
2018-07-07T02:40:32.555Z,13.01
2018-07-07T02:41:41.468Z,12.98
2018-07-07T02:42:50.112Z,12.94
2018-07-07T02:43:58.759Z,12.98
2018-07-07T02:45:07.679Z,12.95
2018-07-07T02:46:16.330Z,12.93
2018-07-07T02:47:25.233Z,12.83
2018-07-07T02:48:33.878Z,12.93
2018-07-07T02:49:42.569Z,12.83
2018-07-07T02:50:51.448Z,12.87
2018-07-07T02:52:00.092Z,12.81
2018-07-07T02:53:08.740Z,12.84
2018-07-07T02:54:17.381Z,12.86
2018-07-07T02:55:26.036Z,12.86
2018-07-07T02:56:35.200Z,12.76
2018-07-07T02:57:43.855Z,12.78
2018-07-07T02:58:52.509Z,12.73
2018-07-07T03:00:01.697Z,12.72
2018-07-07T03:01:10.607Z,12.78
2018-07-07T03:02:19.605Z,12.76
2018-07-07T03:03:28.491Z,12.75
2018-07-07T03:04:37.670Z,12.7
2018-07-07T03:05:46.461Z,12.73
2018-07-07T03:06:55.359Z,12.75
2018-07-07T03:08:04.365Z,12.73
2018-07-07T03:09:13.107Z,12.68
2018-07-07T03:10:21.946Z,12.73
2018-07-07T03:11:30.589Z,12.75
2018-07-07T03:12:39.232Z,12.78
2018-07-07T03:13:47.880Z,12.69
2018-07-07T03:14:56.526Z,12.68
2018-07-07T03:16:05.442Z,12.7
2018-07-07T03:17:14.347Z,12.68
2018-07-07T03:18:22.997Z,12.65
2018-07-07T03:19:31.644Z,12.62
2018-07-07T03:20:40.290Z,12.61
2018-07-07T03:21:48.932Z,12.61
2018-07-07T03:22:57.588Z,12.58
2018-07-07T03:24:06.500Z,12.55
2018-07-07T03:25:15.672Z,12.66
2018-07-07T03:26:24.330Z,12.51
2018-07-07T03:27:32.969Z,12.51
2018-07-07T03:28:41.612Z,12.55
2018-07-07T03:29:50.255Z,12.54
2018-07-07T03:30:59.176Z,12.48
2018-07-07T03:32:07.828Z,12.51
2018-07-07T03:33:17.000Z,12.54
2018-07-07T03:34:25.646Z,12.61
2018-07-07T03:35:34.560Z,12.53
2018-07-07T03:36:43.464Z,12.54
2018-07-07T03:37:52.109Z,12.58
2018-07-07T03:39:00.750Z,12.57
2018-07-07T03:40:09.398Z,12.55
2018-07-07T03:41:18.040Z,12.61
2018-07-07T03:42:26.685Z,12.44
2018-07-07T03:43:35.327Z,12.45
2018-07-07T03:44:43.968Z,12.5
2018-07-07T03:45:52.621Z,12.45
2018-07-07T03:47:01.265Z,12.47
2018-07-07T03:48:09.911Z,12.43
2018-07-07T03:49:18.864Z,12.45
2018-07-07T03:50:27.469Z,12.36
2018-07-07T03:51:36.117Z,12.39
2018-07-07T03:52:44.762Z,12.45
2018-07-07T03:53:53.401Z,12.4
2018-07-07T03:55:02.049Z,12.35
2018-07-07T03:56:10.691Z,12.4
2018-07-07T03:57:19.332Z,12.36
2018-07-07T03:58:27.970Z,12.37
2018-07-07T03:59:36.620Z,12.4
2018-07-07T04:00:45.265Z,12.36
2018-07-07T04:01:53.913Z,12.36
2018-07-07T04:03:02.559Z,12.37
2018-07-07T04:04:11.191Z,12.39
2018-07-07T04:05:19.840Z,12.37
2018-07-07T04:06:28.481Z,12.39
2018-07-07T04:07:37.131Z,12.4
2018-07-07T04:08:45.769Z,12.39
2018-07-07T04:09:54.417Z,12.39
2018-07-07T04:11:03.056Z,12.45
2018-07-07T04:12:11.712Z,12.37
2018-07-07T04:13:20.606Z,12.53
2018-07-07T04:14:29.254Z,12.43
2018-07-07T04:15:37.894Z,12.51
2018-07-07T04:16:46.548Z,12.48
2018-07-07T04:17:55.192Z,12.43
2018-07-07T04:19:04.099Z,12.44
2018-07-07T04:20:12.772Z,12.58
2018-07-07T04:21:21.385Z,12.54
2018-07-07T04:22:30.040Z,12.54
2018-07-07T04:23:38.677Z,12.54
2018-07-07T04:24:47.590Z,12.57
2018-07-07T04:25:56.220Z,12.53
2018-07-07T04:27:04.874Z,12.51
2018-07-07T04:28:13.770Z,12.66
2018-07-07T04:29:22.417Z,12.65
2018-07-07T04:30:31.071Z,12.66
2018-07-07T04:31:39.995Z,12.63
2018-07-07T04:32:48.639Z,12.65
2018-07-07T04:33:57.286Z,12.72
2018-07-07T04:35:05.922Z,12.7
2018-07-07T04:36:14.569Z,12.69
2018-07-07T04:37:23.219Z,12.8
2018-07-07T04:38:31.866Z,12.78
2018-07-07T04:39:40.512Z,12.83
2018-07-07T04:40:49.147Z,12.81
2018-07-07T04:41:57.797Z,12.81
2018-07-07T04:43:06.438Z,12.87
2018-07-07T04:44:15.356Z,12.86
2018-07-07T04:45:23.994Z,12.83
2018-07-07T04:46:32.642Z,12.93
2018-07-07T04:47:41.278Z,12.98
2018-07-07T04:48:49.930Z,13.02
2018-07-07T04:49:58.563Z,13.01
2018-07-07T04:51:07.214Z,13.16
2018-07-07T04:52:15.870Z,13.16
2018-07-07T04:53:24.514Z,13.12
2018-07-07T04:54:33.151Z,13.16
2018-07-07T04:55:42.058Z,13.17
2018-07-07T04:56:50.700Z,13.19
2018-07-07T04:57:59.343Z,13.27
2018-07-07T04:59:08.005Z,13.26
2018-07-07T05:00:16.641Z,13.28
2018-07-07T05:01:25.282Z,13.4
2018-07-07T05:02:34.199Z,13.3
2018-07-07T05:03:42.833Z,13.4
2018-07-07T05:04:51.480Z,13.55
2018-07-07T05:06:00.123Z,13.55
2018-07-07T05:07:08.777Z,13.5
2018-07-07T05:08:17.413Z,13.52
2018-07-07T05:09:26.068Z,13.55
2018-07-07T05:10:34.981Z,13.67
2018-07-07T05:11:43.634Z,13.71
2018-07-07T05:12:52.277Z,13.71
2018-07-07T05:14:00.915Z,13.64
2018-07-07T05:15:09.826Z,13.78
2018-07-07T05:16:18.462Z,13.82
2018-07-07T05:17:27.119Z,13.83
2018-07-07T05:18:35.766Z,13.86
2018-07-07T05:19:44.412Z,13.91
2018-07-07T05:20:53.315Z,13.95
2018-07-07T05:22:01.968Z,14.04
2018-07-07T05:23:10.608Z,14.07
2018-07-07T05:24:19.258Z,14.07
2018-07-07T05:25:27.900Z,14.13
2018-07-07T05:26:36.558Z,14.15
2018-07-07T05:27:45.197Z,14.26
2018-07-07T05:28:54.112Z,14.25
2018-07-07T05:30:02.750Z,14.3
2018-07-07T05:31:11.397Z,14.36
2018-07-07T05:32:20.049Z,14.45
2018-07-07T05:33:28.697Z,14.45
2018-07-07T05:34:37.342Z,14.55
2018-07-07T05:35:45.983Z,14.55
2018-07-07T05:36:54.968Z,14.49
2018-07-07T05:38:03.612Z,14.63
2018-07-07T05:39:12.524Z,14.7
2018-07-07T05:40:21.162Z,14.78
2018-07-07T05:41:29.815Z,14.81
2018-07-07T05:42:38.713Z,14.85
2018-07-07T05:43:47.368Z,14.89
2018-07-07T05:44:56.003Z,14.89
2018-07-07T05:46:04.650Z,14.96
2018-07-07T05:47:13.564Z,15.02
2018-07-07T05:48:22.216Z,15.05
2018-07-07T05:49:30.860Z,15.18
2018-07-07T05:50:39.502Z,15.15
2018-07-07T05:51:48.146Z,15.23
2018-07-07T05:52:56.793Z,15.29
2018-07-07T05:54:05.445Z,15.43
2018-07-07T05:55:14.085Z,15.45
2018-07-07T05:56:22.735Z,15.47
2018-07-07T05:57:31.500Z,15.51
2018-07-07T05:58:40.481Z,15.52
2018-07-07T05:59:49.126Z,15.52
2018-07-07T06:00:57.771Z,15.62
2018-07-07T06:02:06.943Z,15.62
2018-07-07T06:03:15.591Z,15.6
2018-07-07T06:04:24.237Z,15.57
2018-07-07T06:05:33.145Z,15.75
2018-07-07T06:06:41.784Z,15.81
2018-07-07T06:07:50.433Z,15.83
2018-07-07T06:08:59.078Z,15.92
2018-07-07T06:10:07.726Z,16
2018-07-07T06:11:16.373Z,16.03
2018-07-07T06:12:25.016Z,16.18
2018-07-07T06:13:33.661Z,16.16
2018-07-07T06:14:42.305Z,16.13
2018-07-07T06:15:50.954Z,16.22
2018-07-07T06:16:59.595Z,16.29
2018-07-07T06:18:08.502Z,16.29
2018-07-07T06:19:17.149Z,16.43
2018-07-07T06:20:25.800Z,16.39
2018-07-07T06:21:34.440Z,16.5
2018-07-07T06:22:43.088Z,16.55
2018-07-07T06:23:51.731Z,16.57
2018-07-07T06:25:00.647Z,16.66
2018-07-07T06:26:09.289Z,16.68
2018-07-07T06:27:17.936Z,16.66
2018-07-07T06:28:26.581Z,16.76
2018-07-07T06:29:35.224Z,16.79
2018-07-07T06:30:43.874Z,16.84
2018-07-07T06:31:52.520Z,16.89
2018-07-07T06:33:01.431Z,16.86
2018-07-07T06:34:10.073Z,16.82
2018-07-07T06:35:18.728Z,16.83
2018-07-07T06:36:27.378Z,16.83
2018-07-07T06:37:36.026Z,16.87
2018-07-07T06:38:44.667Z,16.84
2018-07-07T06:39:53.317Z,16.97
2018-07-07T06:41:02.229Z,16.99
2018-07-07T06:42:10.878Z,16.98
2018-07-07T06:43:20.051Z,16.99
2018-07-07T06:44:28.957Z,17.09
2018-07-07T06:45:37.603Z,17.14
2018-07-07T06:46:46.253Z,17.2
2018-07-07T06:47:54.901Z,17.19
2018-07-07T06:49:03.548Z,17.14
2018-07-07T06:50:12.190Z,17.23
2018-07-07T06:51:20.832Z,17.31
2018-07-07T06:52:29.484Z,17.27
2018-07-07T06:53:38.139Z,17.38
2018-07-07T06:54:46.777Z,17.32
2018-07-07T06:55:55.420Z,17.3
2018-07-07T06:57:04.079Z,17.35
2018-07-07T06:58:12.719Z,17.41
2018-07-07T06:59:21.368Z,17.44
2018-07-07T07:00:30.012Z,17.49
2018-07-07T07:01:38.668Z,17.46
2018-07-07T07:02:47.595Z,17.44
2018-07-07T07:03:56.496Z,17.56
2018-07-07T07:05:05.142Z,17.53
2018-07-07T07:06:13.787Z,17.54
2018-07-07T07:07:22.444Z,17.57
2018-07-07T07:08:31.113Z,17.59
2018-07-07T07:09:39.765Z,17.66
2018-07-07T07:10:48.405Z,17.69
2018-07-07T07:11:57.394Z,17.79
2018-07-07T07:13:06.810Z,17.84
2018-07-07T07:14:15.463Z,17.87
2018-07-07T07:15:24.369Z,17.93
2018-07-07T07:16:33.029Z,17.98
2018-07-07T07:17:41.675Z,17.97
2018-07-07T07:18:50.322Z,17.98
2018-07-07T07:19:59.249Z,18.09
2018-07-07T07:21:07.872Z,18.16
2018-07-07T07:22:16.524Z,18.08
2018-07-07T07:23:25.607Z,18.16
2018-07-07T07:24:34.258Z,18.18
2018-07-07T07:25:42.898Z,18.19
2018-07-07T07:26:51.549Z,18.24
2018-07-07T07:28:00.196Z,18.21
2018-07-07T07:29:08.855Z,18.19
2018-07-07T07:30:17.495Z,18.15
2018-07-07T07:31:26.146Z,18.27
2018-07-07T07:32:34.789Z,18.28
2018-07-07T07:33:43.447Z,18.27
2018-07-07T07:34:52.086Z,18.39
2018-07-07T07:36:00.739Z,18.41
2018-07-07T07:37:09.385Z,18.52
2018-07-07T07:38:18.042Z,18.53
2018-07-07T07:39:26.691Z,18.61
2018-07-07T07:40:35.333Z,18.64
2018-07-07T07:41:43.980Z,18.55
2018-07-07T07:42:52.623Z,18.66
2018-07-07T07:44:01.282Z,18.66
2018-07-07T07:45:09.924Z,18.63
2018-07-07T07:46:18.577Z,18.7
2018-07-07T07:47:27.216Z,18.64
2018-07-07T07:48:35.872Z,18.7
2018-07-07T07:49:44.515Z,18.68
2018-07-07T07:50:53.167Z,18.68
2018-07-07T07:52:01.806Z,18.73
2018-07-07T07:53:10.724Z,18.78
2018-07-07T07:54:19.371Z,18.83
2018-07-07T07:55:28.281Z,18.88
2018-07-07T07:56:36.924Z,18.83
2018-07-07T07:57:45.578Z,18.91
2018-07-07T07:58:54.795Z,18.92
2018-07-07T08:00:03.400Z,19.01
2018-07-07T08:01:12.050Z,19.04
2018-07-07T08:02:20.692Z,18.98
2018-07-07T08:03:29.347Z,19.15
2018-07-07T08:04:37.992Z,19.07
2018-07-07T08:05:46.644Z,19.09
2018-07-07T08:06:55.289Z,19.11
2018-07-07T08:08:04.196Z,19.09
2018-07-07T08:09:12.843Z,19.17
2018-07-07T08:10:21.498Z,19.2
2018-07-07T08:11:30.142Z,19.12
2018-07-07T08:12:38.790Z,19.24
2018-07-07T08:13:47.442Z,19.19
2018-07-07T08:14:56.356Z,19.38
2018-07-07T08:16:05.001Z,19.41
2018-07-07T08:17:13.648Z,19.57
2018-07-07T08:18:22.295Z,19.67
2018-07-07T08:19:30.939Z,19.71
2018-07-07T08:20:39.859Z,19.66
2018-07-07T08:21:48.518Z,19.71
2018-07-07T08:22:58.060Z,19.81
2018-07-07T08:24:06.985Z,19.85
2018-07-07T08:25:15.639Z,19.75
2018-07-07T08:26:24.289Z,19.79
2018-07-07T08:27:32.936Z,19.79
2018-07-07T08:28:41.585Z,19.77
2018-07-07T08:29:50.227Z,19.84
2018-07-07T08:30:58.874Z,19.92
2018-07-07T08:32:07.526Z,19.97
2018-07-07T08:33:16.169Z,19.96
2018-07-07T08:34:24.851Z,20.03
2018-07-07T08:35:33.804Z,20.08
2018-07-07T08:36:42.454Z,20.1
2018-07-07T08:37:51.103Z,20.1
2018-07-07T08:38:59.749Z,20.15
2018-07-07T08:40:08.398Z,20.19
2018-07-07T08:41:17.049Z,20.21
2018-07-07T08:42:25.703Z,20.29
2018-07-07T08:43:34.350Z,20.32
2018-07-07T08:44:43.004Z,20.33
2018-07-07T08:45:51.651Z,20.32
2018-07-07T08:47:00.305Z,20.34
2018-07-07T08:48:08.951Z,20.44
2018-07-07T08:49:17.650Z,20.46
2018-07-07T08:50:26.583Z,20.49
2018-07-07T08:51:35.235Z,20.42
2018-07-07T08:52:43.881Z,20.58
2018-07-07T08:53:52.529Z,20.59
2018-07-07T08:55:01.182Z,20.66
2018-07-07T08:56:10.100Z,20.71
2018-07-07T08:57:18.744Z,20.7
2018-07-07T08:58:27.393Z,20.82
2018-07-07T08:59:36.044Z,20.9
2018-07-07T09:00:44.695Z,20.92
2018-07-07T09:01:53.343Z,21
2018-07-07T09:03:02.252Z,21
2018-07-07T09:04:10.904Z,21.15
2018-07-07T09:05:19.562Z,21.17
2018-07-07T09:06:28.204Z,21.19
2018-07-07T09:07:36.868Z,21.25
2018-07-07T09:08:45.782Z,21.25
2018-07-07T09:09:54.436Z,21.26
2018-07-07T09:11:03.088Z,21.25
2018-07-07T09:12:11.999Z,21.38
2018-07-07T09:13:20.923Z,21.35
2018-07-07T09:14:29.835Z,21.35
2018-07-07T09:15:38.488Z,21.29
2018-07-07T09:16:47.138Z,21.3
2018-07-07T09:17:55.787Z,21.25
2018-07-07T09:19:04.694Z,21.19
2018-07-07T09:20:13.349Z,21.2
2018-07-07T09:21:22.070Z,21.25
2018-07-07T09:22:30.647Z,21.37
2018-07-07T09:23:39.292Z,21.37
2018-07-07T09:24:47.950Z,21.4
2018-07-07T09:25:56.594Z,21.43
2018-07-07T09:27:05.246Z,21.43
2018-07-07T09:28:13.891Z,21.43
2018-07-07T09:29:22.542Z,21.45
2018-07-07T09:30:31.196Z,21.48
2018-07-07T09:31:40.108Z,21.53
2018-07-07T09:32:48.764Z,21.63
2018-07-07T09:33:57.402Z,21.66
2018-07-07T09:35:06.052Z,21.72
2018-07-07T09:36:14.701Z,21.68
2018-07-07T09:37:23.355Z,21.75
2018-07-07T09:38:31.999Z,21.77
2018-07-07T09:39:40.648Z,21.74
2018-07-07T09:40:49.302Z,21.83
2018-07-07T09:41:57.954Z,21.89
2018-07-07T09:43:06.599Z,21.99
2018-07-07T09:44:16.056Z,21.99
2018-07-07T09:45:24.704Z,21.94
2018-07-07T09:46:33.357Z,21.97
2018-07-07T09:47:42.006Z,21.96
2018-07-07T09:48:50.925Z,22.07
2018-07-07T09:49:59.571Z,22.14
2018-07-07T09:51:08.783Z,22.1
2018-07-07T09:52:17.693Z,22.22
2018-07-07T09:53:26.604Z,22.25
2018-07-07T09:54:35.524Z,22.34
2018-07-07T09:55:44.165Z,22.37
2018-07-07T09:56:52.824Z,22.34
2018-07-07T09:58:01.470Z,22.41
2018-07-07T09:59:10.124Z,22.34
2018-07-07T10:00:18.766Z,22.38
2018-07-07T10:01:27.427Z,22.38
2018-07-07T10:02:36.074Z,22.34
2018-07-07T10:03:44.983Z,22.33
2018-07-07T10:04:53.889Z,22.38
2018-07-07T10:06:02.803Z,22.41
2018-07-07T10:07:11.456Z,22.37
2018-07-07T10:08:20.110Z,22.43
2018-07-07T10:09:28.759Z,22.49
2018-07-07T10:10:37.404Z,22.53
2018-07-07T10:11:46.326Z,22.56
2018-07-07T10:12:55.229Z,22.47
2018-07-07T10:14:03.887Z,22.44
2018-07-07T10:15:12.529Z,22.53
2018-07-07T10:16:21.181Z,22.62
2018-07-07T10:17:29.830Z,22.56
2018-07-07T10:18:38.492Z,22.52
2018-07-07T10:19:47.131Z,22.7
2018-07-07T10:20:55.782Z,22.71
2018-07-07T10:22:04.716Z,22.73
2018-07-07T10:23:13.375Z,22.73
2018-07-07T10:24:22.286Z,22.76
2018-07-07T10:25:30.932Z,22.71
2018-07-07T10:26:39.844Z,22.74
2018-07-07T10:27:48.492Z,22.81
2018-07-07T10:28:57.150Z,22.92
2018-07-07T10:30:06.327Z,23.01
2018-07-07T10:31:14.982Z,22.95
2018-07-07T10:32:23.623Z,22.96
2018-07-07T10:33:32.285Z,23.08
2018-07-07T10:34:40.930Z,23.26
2018-07-07T10:35:49.854Z,23.29
2018-07-07T10:36:58.492Z,23.29
2018-07-07T10:38:07.156Z,23.18
2018-07-07T10:39:15.801Z,23.36
2018-07-07T10:40:24.453Z,23.44
2018-07-07T10:41:33.093Z,23.44
2018-07-07T10:42:41.748Z,23.51
2018-07-07T10:43:50.663Z,23.62
2018-07-07T10:44:59.319Z,23.66
2018-07-07T10:46:08.087Z,23.62
2018-07-07T10:47:16.628Z,23.71
2018-07-07T10:48:25.606Z,23.64
2018-07-07T10:49:34.261Z,23.67
2018-07-07T10:50:42.915Z,23.74
2018-07-07T10:51:51.835Z,23.74
2018-07-07T10:53:00.537Z,23.7
2018-07-07T10:54:09.507Z,23.76
2018-07-07T10:55:18.166Z,23.76
2018-07-07T10:56:26.808Z,23.74
2018-07-07T10:57:35.985Z,23.79
2018-07-07T10:58:44.666Z,23.82
2018-07-07T10:59:53.573Z,23.91
2018-07-07T11:01:02.498Z,23.91
2018-07-07T11:02:11.145Z,24.01
2018-07-07T11:03:19.794Z,24.09
2018-07-07T11:04:28.442Z,24.1
2018-07-07T11:05:37.103Z,24.04
2018-07-07T11:06:46.012Z,24.07
2018-07-07T11:07:54.929Z,24.1
2018-07-07T11:09:03.577Z,24.16
2018-07-07T11:10:12.504Z,24.04
2018-07-07T11:11:21.149Z,24.01
2018-07-07T11:12:29.804Z,23.84
2018-07-07T11:13:38.449Z,23.99
2018-07-07T11:14:47.107Z,23.88
2018-07-07T11:15:55.756Z,24.06
2018-07-07T11:17:04.957Z,24.11
2018-07-07T11:18:13.602Z,24.18
2018-07-07T11:19:23.044Z,24.22
2018-07-07T11:20:31.962Z,24.19
2018-07-07T11:21:40.613Z,24.19
2018-07-07T11:22:49.272Z,24.14
2018-07-07T11:23:57.911Z,24.16
2018-07-07T11:25:06.573Z,24.11
2018-07-07T11:26:15.221Z,24.13
2018-07-07T11:27:23.883Z,24.13
2018-07-07T11:28:32.821Z,24.16
2018-07-07T11:29:41.514Z,24.28
2018-07-07T11:30:50.126Z,24.19
2018-07-07T11:31:58.785Z,24.31
2018-07-07T11:33:07.432Z,24.26
2018-07-07T11:34:16.086Z,24.26
2018-07-07T11:35:24.736Z,24.1
2018-07-07T11:36:33.494Z,24
2018-07-07T11:37:42.450Z,24.06
2018-07-07T11:38:51.096Z,24.11
2018-07-07T11:39:59.750Z,24.09
2018-07-07T11:41:08.399Z,24.14
2018-07-07T11:42:17.112Z,24.18
2018-07-07T11:43:25.714Z,24.26
2018-07-07T11:44:34.630Z,24.34
2018-07-07T11:45:43.273Z,24.38
2018-07-07T11:46:51.935Z,24.38
2018-07-07T11:48:00.584Z,24.34
2018-07-07T11:49:09.237Z,24.14
2018-07-07T11:50:17.973Z,24.24
2018-07-07T11:51:26.540Z,24.4
2018-07-07T11:52:35.190Z,24.34
2018-07-07T11:53:43.843Z,24.44
2018-07-07T11:54:52.497Z,24.5
2018-07-07T11:56:01.146Z,24.51
2018-07-07T11:57:09.820Z,24.48
2018-07-07T11:58:18.453Z,24.47
2018-07-07T11:59:27.368Z,24.53
2018-07-07T12:00:36.018Z,24.47
2018-07-07T12:01:44.670Z,24.53
2018-07-07T12:02:53.323Z,24.47
2018-07-07T12:04:01.983Z,24.55
2018-07-07T12:05:10.896Z,24.61
2018-07-07T12:06:19.551Z,24.66
2018-07-07T12:07:28.205Z,24.81
2018-07-07T12:08:37.389Z,24.88
2018-07-07T12:09:46.040Z,24.82
2018-07-07T12:10:54.690Z,24.96
2018-07-07T12:12:03.340Z,24.84
2018-07-07T12:13:11.998Z,25.04
2018-07-07T12:14:20.648Z,24.97
2018-07-07T12:15:29.302Z,24.94
2018-07-07T12:16:37.951Z,24.96
2018-07-07T12:17:46.603Z,25.01
2018-07-07T12:18:55.525Z,25.01
2018-07-07T12:20:04.181Z,24.97
2018-07-07T12:21:12.834Z,25.11
2018-07-07T12:22:21.480Z,25.11
2018-07-07T12:23:30.138Z,25.09
2018-07-07T12:24:39.069Z,25.07
2018-07-07T12:25:47.704Z,25.09
2018-07-07T12:26:56.611Z,25.04
2018-07-07T12:28:05.267Z,25.07
2018-07-07T12:29:13.917Z,25
2018-07-07T12:30:22.572Z,25.06
2018-07-07T12:31:31.219Z,25.11
2018-07-07T12:32:40.132Z,25.18
2018-07-07T12:33:48.796Z,25.21
2018-07-07T12:34:57.709Z,25.29
2018-07-07T12:36:06.362Z,25.4
2018-07-07T12:37:15.010Z,25.43
2018-07-07T12:38:23.927Z,25.48
2018-07-07T12:39:32.579Z,25.4
2018-07-07T12:40:41.290Z,25.34
2018-07-07T12:41:50.205Z,25.25
2018-07-07T12:42:58.858Z,25.3
2018-07-07T12:44:07.782Z,25.33
2018-07-07T12:45:16.440Z,25.34
2018-07-07T12:46:25.088Z,25.33
2018-07-07T12:47:34.014Z,25.46
2018-07-07T12:48:42.668Z,25.52
2018-07-07T12:49:51.316Z,25.44
2018-07-07T12:50:59.971Z,25.41
2018-07-07T12:52:08.889Z,25.21
2018-07-07T12:53:17.541Z,25.26
2018-07-07T12:54:26.205Z,25.14
2018-07-07T12:55:34.853Z,25.12
2018-07-07T12:56:43.504Z,25.18
2018-07-07T12:57:52.156Z,25.14
2018-07-07T12:59:00.811Z,25.24
2018-07-07T13:00:09.722Z,25.25
2018-07-07T13:01:18.682Z,25.33
2018-07-07T13:02:27.718Z,25.36
2018-07-07T13:03:36.375Z,25.37
2018-07-07T13:04:45.033Z,25.33
2018-07-07T13:05:53.686Z,25.33
2018-07-07T13:07:02.412Z,25.37
2018-07-07T13:08:10.995Z,25.34
2018-07-07T13:09:19.645Z,25.39
2018-07-07T13:10:28.296Z,25.36
2018-07-07T13:11:36.947Z,25.43
2018-07-07T13:12:45.600Z,25.59
2018-07-07T13:13:54.256Z,25.49
2018-07-07T13:15:02.956Z,25.54
2018-07-07T13:16:11.606Z,25.68
2018-07-07T13:17:20.210Z,25.71
2018-07-07T13:18:28.868Z,25.73
2018-07-07T13:19:37.518Z,25.81
2018-07-07T13:20:46.180Z,25.76
2018-07-07T13:21:55.146Z,25.8
2018-07-07T13:23:03.807Z,25.77
2018-07-07T13:24:12.458Z,25.76
2018-07-07T13:25:21.383Z,25.86
2018-07-07T13:26:30.495Z,25.8
2018-07-07T13:27:39.035Z,25.85
2018-07-07T13:28:47.690Z,25.83
2018-07-07T13:29:56.346Z,25.99
2018-07-07T13:31:05.002Z,25.86
2018-07-07T13:32:13.932Z,25.81
2018-07-07T13:33:22.634Z,25.85
2018-07-07T13:34:31.237Z,25.83
2018-07-07T13:35:40.160Z,25.98
2018-07-07T13:36:48.811Z,25.88
2018-07-07T13:37:57.462Z,25.92
2018-07-07T13:39:06.117Z,26.01
2018-07-07T13:40:14.779Z,25.95
2018-07-07T13:41:23.418Z,26.11
2018-07-07T13:42:32.074Z,26.24
2018-07-07T13:43:40.724Z,26.24
2018-07-07T13:44:49.385Z,26.26
2018-07-07T13:45:58.050Z,26.34
2018-07-07T13:47:06.960Z,26.27
2018-07-07T13:48:15.607Z,26.07
2018-07-07T13:49:24.522Z,25.96
2018-07-07T13:50:33.183Z,25.91
2018-07-07T13:51:41.831Z,25.96
2018-07-07T13:52:50.495Z,26.03
2018-07-07T13:53:59.135Z,26.1
2018-07-07T13:55:07.798Z,26.08
2018-07-07T13:56:16.451Z,26.08
2018-07-07T13:57:25.110Z,26.04
2018-07-07T13:58:33.754Z,25.95
2018-07-07T13:59:42.417Z,25.96
2018-07-07T14:00:51.067Z,25.81
2018-07-07T14:01:59.723Z,25.95
2018-07-07T14:03:08.365Z,25.95
2018-07-07T14:04:17.019Z,25.92
2018-07-07T14:05:25.678Z,26.1
2018-07-07T14:06:34.596Z,26.07
2018-07-07T14:07:43.249Z,26.07
2018-07-07T14:08:52.157Z,26.16
2018-07-07T14:10:01.078Z,26.03
2018-07-07T14:11:09.727Z,25.92
2018-07-07T14:12:18.650Z,25.86
2018-07-07T14:13:27.294Z,25.95
2018-07-07T14:14:35.953Z,25.95
2018-07-07T14:15:44.603Z,25.95
2018-07-07T14:16:54.093Z,25.98
2018-07-07T14:18:02.718Z,26.07
2018-07-07T14:19:11.636Z,26.07
2018-07-07T14:20:20.285Z,26.15
2018-07-07T14:21:29.225Z,26.1
2018-07-07T14:22:37.874Z,25.96
2018-07-07T14:23:46.522Z,25.93
2018-07-07T14:24:55.443Z,26.08
2018-07-07T14:26:04.615Z,26.07
2018-07-07T14:27:13.539Z,26.11
2018-07-07T14:28:22.459Z,25.95
2018-07-07T14:29:31.116Z,25.98
2018-07-07T14:30:40.023Z,25.89
2018-07-07T14:31:48.988Z,25.99
2018-07-07T14:32:57.615Z,25.93
2018-07-07T14:34:06.271Z,25.86
2018-07-07T14:35:14.914Z,25.77
2018-07-07T14:36:23.844Z,25.92
2018-07-07T14:37:32.497Z,25.85
2018-07-07T14:38:41.153Z,25.95
2018-07-07T14:39:50.060Z,25.93
2018-07-07T14:40:58.715Z,25.93
2018-07-07T14:42:07.373Z,26.13
2018-07-07T14:43:16.024Z,26.08
2018-07-07T14:44:24.678Z,26.18
2018-07-07T14:45:33.322Z,26.22
2018-07-07T14:46:41.985Z,26.23